TimeEDT,TemperatureF,Dew PointF,Humidity,Sea Level PressureIn,VisibilityMPH,Wind Direction,Wind SpeedMPH,Gust SpeedMPH,PrecipitationIn,Events,Conditions,WindDirDegrees,DateUTC
12:56 AM,46.9,37.0,68,29.90,10.0,West,17.3,25.3,N/A,,Mostly Cloudy,270,2012-10-11 04:56:00
1:56 AM,46.9,37.9,71,29.92,10.0,West,16.1,21.9,N/A,,Overcast,270,2012-10-11 05:56:00
2:45 AM,46.4,37.4,71,29.94,10.0,West,13.8,-,N/A,,Overcast,280,2012-10-11 06:45:00
2:56 AM,46.0,37.9,73,29.94,10.0,West,12.7,20.7,N/A,,Overcast,280,2012-10-11 06:56:00
3:19 AM,46.4,37.4,71,29.95,10.0,WNW,10.4,-,N/A,,Overcast,290,2012-10-11 07:19:00
3:56 AM,46.0,37.0,71,29.98,10.0,West,8.1,-,N/A,,Overcast,280,2012-10-11 07:56:00
4:03 AM,44.6,37.4,76,29.97,10.0,WNW,9.2,-,N/A,,Overcast,290,2012-10-11 08:03:00
4:56 AM,44.1,37.9,79,30.01,10.0,WNW,8.1,-,N/A,,Overcast,290,2012-10-11 08:56:00
5:12 AM,44.6,37.4,76,30.00,10.0,WNW,8.1,-,N/A,,Mostly Cloudy,290,2012-10-11 09:12:00
5:56 AM,45.0,37.0,74,30.03,10.0,WNW,12.7,-,N/A,,Mostly Cloudy,290,2012-10-11 09:56:00
6:22 AM,44.6,37.4,76,30.04,10.0,West,10.4,-,N/A,,Mostly Cloudy,270,2012-10-11 10:22:00
6:30 AM,44.6,37.4,76,30.04,10.0,West,12.7,-,N/A,,Mostly Cloudy,280,2012-10-11 10:30:00
6:56 AM,44.1,36.0,73,30.04,10.0,West,13.8,19.6,N/A,,Clear,270,2012-10-11 10:56:00
7:24 AM,44.6,37.4,76,30.05,10.0,NW,9.2,-,N/A,,Mostly Cloudy,310,2012-10-11 11:24:00
7:48 AM,44.6,37.4,76,30.06,10.0,WNW,9.2,-,N/A,,Partly Cloudy,300,2012-10-11 11:48:00
7:56 AM,44.6,35.6,71,30.06,10.0,WNW,9.2,-,N/A,,Partly Cloudy,300,2012-10-11 11:56:00
8:56 AM,44.1,36.0,73,30.10,10.0,West,15.0,-,N/A,,Scattered Clouds,270,2012-10-11 12:56:00
9:56 AM,46.9,37.9,71,30.13,10.0,West,15.0,-,N/A,,Mostly Cloudy,280,2012-10-11 13:56:00
10:56 AM,48.9,35.1,59,30.13,10.0,West,12.7,-,N/A,,Overcast,270,2012-10-11 14:56:00
11:56 AM,50.0,37.0,61,30.13,10.0,West,13.8,23.0,N/A,,Overcast,260,2012-10-11 15:56:00
12:56 PM,48.9,35.1,59,30.12,10.0,West,15.0,-,N/A,,Overcast,260,2012-10-11 16:56:00
1:56 PM,48.9,34.0,56,30.11,10.0,WSW,15.0,21.9,N/A,,Overcast,250,2012-10-11 17:56:00
2:56 PM,48.9,35.1,59,30.09,10.0,WSW,15.0,23.0,N/A,,Overcast,240,2012-10-11 18:56:00
3:56 PM,48.9,34.0,56,30.08,10.0,WSW,17.3,21.9,0.00,Rain,Light Rain,240,2012-10-11 19:56:00
4:56 PM,46.0,36.0,68,30.06,10.0,SW,6.9,16.1,0.00,Rain,Light Rain,220,2012-10-11 20:56:00
5:56 PM,45.0,37.0,74,30.03,10.0,SSE,5.8,-,0.00,,Overcast,150,2012-10-11 21:56:00
6:56 PM,46.4,35.6,66,30.01,10.0,SSE,5.8,-,N/A,,Overcast,160,2012-10-11 22:56:00
7:56 PM,46.0,35.1,66,30.00,10.0,Calm,Calm,-,N/A,,Overcast,0,2012-10-11 23:56:00
8:56 PM,48.2,35.6,62,29.99,10.0,SSW,10.4,21.9,N/A,Rain,Light Rain,200,2012-10-12 00:56:00
9:56 PM,48.9,42.1,77,29.98,10.0,SSW,10.4,-,0.03,Rain,Light Rain,200,2012-10-12 01:56:00
10:56 PM,51.1,41.0,68,29.95,10.0,SSW,11.5,20.7,0.00,,Overcast,200,2012-10-12 02:56:00
11:56 PM,55.0,42.1,62,29.96,10.0,West,31.1,40.3,0.00,Rain,Light Rain,270,2012-10-12 03:56:00